Time;durP1;ratioP1;P1;durP2;ratioP2;P2;SDS_P1;SDS_P2;PMS_P1;PMS_P2;Temp;Humidity;BMP_temperature;BMP_pressure;BME280_temperature;BME280_humidity;BME280_pressure;Samples;Min_cycle;Max_cycle;Signal;HPM_P1;HPM_P2
2021/06/21 00:01:57;;;;;;;5.40;1.90;;;18.50;99.90;;;;;;5005092;28;20445;-63
2021/06/21 00:04:22;;;;;;;5.37;1.57;;;18.50;99.90;;;;;;4994735;28;20218;-63
2021/06/21 00:06:48;;;;;;;3.10;2.00;;;18.50;99.90;;;;;;5000751;28;20296;-64
2021/06/21 00:09:14;;;;;;;4.47;1.80;;;18.60;99.90;;;;;;5000030;28;20209;-63
2021/06/21 00:11:39;;;;;;;7.53;4.27;;;18.60;99.90;;;;;;4993955;28;20233;-63
2021/06/21 00:14:05;;;;;;;5.93;2.50;;;18.50;99.90;;;;;;5002966;28;20180;-63
2021/06/21 00:16:31;;;;;;;5.00;1.80;;;18.50;99.90;;;;;;4999253;28;20197;-63
2021/06/21 00:18:56;;;;;;;6.73;2.00;;;18.50;99.90;;;;;;4999481;28;20274;-63
2021/06/21 00:21:22;;;;;;;4.77;1.80;;;18.50;99.90;;;;;;5006301;28;20202;-63
2021/06/21 00:23:48;;;;;;;3.10;1.60;;;18.60;99.90;;;;;;4993469;28;20203;-63
2021/06/21 00:26:14;;;;;;;5.90;1.70;;;18.50;99.90;;;;;;4991982;28;20278;-63
2021/06/21 00:28:40;;;;;;;7.60;2.70;;;18.50;99.90;;;;;;4990840;28;20987;-63
2021/06/21 00:31:05;;;;;;;4.47;1.80;;;18.50;99.90;;;;;;4997480;28;20195;-63
2021/06/21 00:33:31;;;;;;;2.90;1.70;;;18.50;99.90;;;;;;4995818;28;20533;-63
2021/06/21 00:35:57;;;;;;;3.57;2.13;;;18.60;99.90;;;;;;4991302;28;20198;-62
2021/06/21 00:38:22;;;;;;;6.90;2.33;;;18.60;99.90;;;;;;4991070;28;20265;-63
2021/06/21 00:40:49;;;;;;;4.77;2.23;;;18.50;99.90;;;;;;4991114;28;20286;-63
2021/06/21 00:43:14;;;;;;;5.90;2.28;;;18.30;99.90;;;;;;4991490;28;20188;-63
2021/06/21 00:45:40;;;;;;;9.63;3.47;;;18.30;99.90;;;;;;4992990;28;20214;-62
2021/06/21 00:48:06;;;;;;;3.10;1.97;;;18.30;99.90;;;;;;4995256;28;20288;-63
2021/06/21 00:50:32;;;;;;;4.40;1.90;;;18.30;99.90;;;;;;4995019;28;20186;-63
2021/06/21 00:53:00;;;;;;;5.17;2.10;;;18.30;99.90;;;;;;4996882;28;20470;-63
2021/06/21 00:55:28;;;;;;;4.68;2.10;;;18.30;99.90;;;;;;4998459;28;20176;-63
2021/06/21 00:57:54;;;;;;;5.63;2.00;;;18.30;99.90;;;;;;5001638;28;20210;-63
2021/06/21 01:00:22;;;;;;;4.35;2.08;;;18.30;99.90;;;;;;4992976;28;20571;-63
2021/06/21 01:02:48;;;;;;;4.55;1.80;;;18.30;99.90;;;;;;4992073;28;20226;-63
2021/06/21 01:05:25;;;;;;;5.80;1.80;;;18.30;99.90;;;;;;4999233;28;20189;-63
2021/06/21 01:07:52;;;;;;;5.15;2.13;;;18.20;99.90;;;;;;5004235;28;20269;-63
2021/06/21 01:10:21;;;;;;;4.55;1.98;;;18.20;99.90;;;;;;5001328;28;20230;-63
2021/06/21 01:12:47;;;;;;;4.95;2.15;;;18.20;99.90;;;;;;4991150;28;20214;-63
2021/06/21 01:16:09;;;;;;;5.87;2.10;;;18.20;99.90;;;;;;4996157;28;20186;-63
2021/06/21 01:18:37;;;;;;;5.30;2.08;;;18.30;99.90;;;;;;4982760;28;20242;-63
2021/06/21 01:21:03;;;;;;;5.38;2.30;;;18.30;99.90;;;;;;4993950;28;20194;-63
2021/06/21 01:24:06;;;;;;;7.13;2.40;;;18.30;99.90;;;;;;4996449;28;20186;-63
2021/06/21 01:26:50;;;;;;;4.80;1.80;;;18.30;99.90;;;;;;4993516;28;20214;-62
2021/06/21 01:29:41;;;;;;;3.63;1.58;;;18.30;99.90;;;;;;5001424;28;20242;-63
2021/06/21 01:32:41;;;;;;;5.80;2.30;;;18.30;99.90;;;;;;4992318;28;20278;-63
2021/06/21 01:35:13;;;;;;;3.20;1.70;;;18.30;99.90;;;;;;4999698;28;20203;-63
2021/06/21 01:37:39;;;;;;;7.90;2.05;;;18.30;99.90;;;;;;4995796;28;20264;-63
2021/06/21 01:40:06;;;;;;;4.07;1.77;;;18.20;99.90;;;;;;4997479;28;20285;-63
2021/06/21 01:42:33;;;;;;;5.43;1.80;;;18.20;99.90;;;;;;4993456;28;20441;-63
2021/06/21 01:45:05;;;;;;;5.30;2.15;;;18.10;99.90;;;;;;4993125;28;20192;-63
2021/06/21 01:47:33;;;;;;;6.30;2.38;;;18.30;99.90;;;;;;5006125;28;20703;-63
2021/06/21 01:49:59;;;;;;;6.25;2.22;;;18.20;99.90;;;;;;4992035;28;20190;-64
2021/06/21 01:52:30;;;;;;;6.45;2.00;;;18.30;99.90;;;;;;5000001;28;20192;-64
2021/06/21 01:54:57;;;;;;;9.80;2.40;;;18.40;99.90;;;;;;4998686;28;20180;-64
2021/06/21 01:57:31;;;;;;;5.40;1.92;;;18.40;99.90;;;;;;4990926;28;20222;-63
2021/06/21 02:00:02;;;;;;;4.78;1.85;;;18.40;99.90;;;;;;4989500;28;20219;-63
2021/06/21 02:02:30;;;;;;;5.00;2.65;;;18.30;99.90;;;;;;5001931;28;20698;-62
2021/06/21 02:04:58;;;;;;;5.38;1.77;;;18.40;99.90;;;;;;4996148;28;20188;-63
2021/06/21 02:07:24;;;;;;;5.30;1.90;;;18.40;99.90;;;;;;4997312;28;20297;-63
2021/06/21 02:09:52;;;;;;;3.47;1.60;;;18.40;99.90;;;;;;4991288;28;20179;-63
2021/06/21 02:12:24;;;;;;;5.38;2.05;;;18.40;99.90;;;;;;4996154;28;20213;-63
2021/06/21 02:14:51;;;;;;;4.68;1.67;;;18.50;99.90;;;;;;4990483;28;20187;-63
2021/06/21 02:17:22;;;;;;;5.72;1.80;;;18.40;99.90;;;;;;4989107;28;20263;-63
2021/06/21 02:19:51;;;;;;;6.20;2.00;;;18.40;99.90;;;;;;4988416;28;20191;-63
2021/06/21 02:22:24;;;;;;;3.60;1.90;;;18.40;99.90;;;;;;4990683;28;20190;-63
2021/06/21 02:24:55;;;;;;;5.22;1.90;;;18.40;99.90;;;;;;4998810;28;20183;-64
2021/06/21 02:27:22;;;;;;;4.72;1.90;;;18.40;99.90;;;;;;4998950;28;20573;-64
2021/06/21 02:29:49;;;;;;;3.83;2.17;;;18.50;99.90;;;;;;4994853;28;20308;-64
2021/06/21 02:32:15;;;;;;;8.40;2.28;;;18.50;99.90;;;;;;4992601;28;20238;-64
2021/06/21 02:34:41;;;;;;;9.52;2.13;;;18.60;99.90;;;;;;4995798;28;20187;-64
2021/06/21 02:37:07;;;;;;;4.20;1.87;;;18.60;99.90;;;;;;5000214;28;20736;-64
2021/06/21 02:39:32;;;;;;;3.47;1.63;;;18.70;99.90;;;;;;5003589;28;20464;-64
2021/06/21 02:41:59;;;;;;;6.27;2.10;;;18.70;99.90;;;;;;4994703;28;20700;-64
2021/06/21 02:44:24;;;;;;;4.68;2.22;;;18.70;99.90;;;;;;5008362;28;20214;-63
2021/06/21 02:46:50;;;;;;;7.80;2.10;;;18.70;99.90;;;;;;4993230;28;20234;-63
2021/06/21 02:49:16;;;;;;;6.40;2.10;;;18.80;99.90;;;;;;5003713;28;20301;-64
2021/06/21 02:52:01;;;;;;;5.13;2.30;;;18.80;99.90;;;;;;4995190;28;20191;-64
2021/06/21 02:55:08;;;;;;;5.25;2.33;;;18.70;99.90;;;;;;4995543;28;20186;-63
2021/06/21 02:57:41;;;;;;;5.22;2.40;;;18.70;99.90;;;;;;5006839;28;20229;-63
2021/06/21 03:00:07;;;;;;;4.55;2.45;;;18.80;99.90;;;;;;4993306;28;20563;-64
2021/06/21 03:02:35;;;;;;;6.30;2.15;;;18.80;99.90;;;;;;5012275;28;20265;-63
2021/06/21 03:05:02;;;;;;;6.47;2.40;;;18.70;99.90;;;;;;4999223;28;20186;-64
2021/06/21 03:07:28;;;;;;;4.03;2.35;;;18.70;99.90;;;;;;4997669;28;20208;-64
2021/06/21 03:09:54;;;;;;;5.95;2.58;;;18.60;99.90;;;;;;4991973;28;20226;-63
2021/06/21 03:12:27;;;;;;;5.68;2.13;;;18.70;99.90;;;;;;4992916;28;20183;-64
2021/06/21 03:14:53;;;;;;;4.30;2.40;;;18.70;99.90;;;;;;4986281;28;20190;-63
2021/06/21 03:17:20;;;;;;;5.30;2.37;;;18.60;99.90;;;;;;5003878;28;20210;-63
2021/06/21 03:19:47;;;;;;;5.63;2.00;;;18.60;99.90;;;;;;4992866;28;20453;-63
2021/06/21 03:22:13;;;;;;;5.43;1.70;;;18.60;99.90;;;;;;5002040;28;20197;-64
2021/06/21 03:24:39;;;;;;;8.90;2.40;;;18.70;99.90;;;;;;4995620;28;20186;-64
2021/06/21 03:27:06;;;;;;;3.27;2.33;;;18.70;99.90;;;;;;4998203;28;20937;-64
2021/06/21 03:29:32;;;;;;;5.78;2.22;;;18.80;99.90;;;;;;4992024;28;21027;-64
2021/06/21 03:32:24;;;;;;;8.43;2.77;;;18.80;99.90;;;;;;5000374;28;20290;-63
2021/06/21 03:34:50;;;;;;;4.72;2.00;;;18.50;99.90;;;;;;5006646;28;20454;-64
2021/06/21 03:37:16;;;;;;;6.17;2.27;;;18.80;99.90;;;;;;4992259;28;20665;-64
2021/06/21 03:39:42;;;;;;;5.32;2.45;;;18.80;99.90;;;;;;5016733;28;20220;-63
2021/06/21 03:42:08;;;;;;;5.87;2.03;;;18.70;99.90;;;;;;4997080;28;20274;-63
2021/06/21 03:44:33;;;;;;;4.57;1.93;;;18.80;99.90;;;;;;4997519;28;20549;-62
2021/06/21 03:46:59;;;;;;;4.23;2.10;;;18.80;99.90;;;;;;5000556;28;20210;-62
2021/06/21 03:49:25;;;;;;;6.83;2.73;;;18.80;99.90;;;;;;4995854;28;20222;-62
2021/06/21 03:51:50;;;;;;;4.27;1.80;;;18.80;99.90;;;;;;5002302;28;20759;-63
2021/06/21 03:54:16;;;;;;;5.93;2.20;;;18.80;99.90;;;;;;4993411;28;20195;-64
2021/06/21 03:56:42;;;;;;;4.83;2.33;;;18.80;99.90;;;;;;5002152;28;20445;-63
2021/06/21 03:59:07;;;;;;;8.73;1.97;;;18.80;99.90;;;;;;4998078;28;20326;-64
2021/06/21 04:01:33;;;;;;;4.40;2.50;;;18.70;99.90;;;;;;4997678;28;20661;-62
2021/06/21 04:03:59;;;;;;;4.47;2.33;;;18.70;99.90;;;;;;4998194;28;20237;-63
2021/06/21 04:06:25;;;;;;;6.18;2.05;;;18.90;99.90;;;;;;4991887;28;20210;-63
2021/06/21 04:08:51;;;;;;;6.60;2.00;;;18.80;99.90;;;;;;4997573;28;20251;-63
2021/06/21 04:11:17;;;;;;;6.73;2.10;;;18.80;99.90;;;;;;4991845;28;20829;-63
2021/06/21 04:13:42;;;;;;;8.10;2.40;;;18.80;99.90;;;;;;4992900;28;20180;-63
2021/06/21 04:16:08;;;;;;;3.90;1.97;;;18.80;99.90;;;;;;4990393;28;20231;-63
2021/06/21 04:18:34;;;;;;;4.03;1.97;;;18.80;99.90;;;;;;5000586;28;20204;-63
2021/06/21 04:20:59;;;;;;;4.80;1.70;;;18.70;99.90;;;;;;4999978;28;20184;-63
2021/06/21 04:23:25;;;;;;;3.83;2.53;;;18.70;99.90;;;;;;4990274;28;20188;-62
2021/06/21 04:25:51;;;;;;;6.30;2.07;;;18.70;99.90;;;;;;4993925;28;20182;-62
2021/06/21 04:28:16;;;;;;;6.60;2.23;;;18.70;99.90;;;;;;4994148;28;20254;-63
2021/06/21 04:30:44;;;;;;;4.17;1.93;;;18.70;99.90;;;;;;4999287;28;20264;-63
2021/06/21 04:33:10;;;;;;;7.43;2.45;;;18.70;99.90;;;;;;4994237;28;20303;-62
2021/06/21 04:35:35;;;;;;;8.30;2.50;;;18.80;99.90;;;;;;4991415;28;20258;-62
2021/06/21 04:38:04;;;;;;;4.50;2.27;;;18.70;99.90;;;;;;4989540;28;20505;-63
2021/06/21 04:40:33;;;;;;;5.50;2.25;;;18.80;99.90;;;;;;4990237;28;20440;-63
2021/06/21 04:42:58;;;;;;;5.15;1.80;;;18.80;99.90;;;;;;4995876;28;20248;-63
2021/06/21 04:45:25;;;;;;;5.90;2.40;;;18.80;99.90;;;;;;4993465;28;20202;-62
2021/06/21 04:47:50;;;;;;;6.10;2.20;;;18.80;99.90;;;;;;4998460;28;20906;-63
2021/06/21 04:50:18;;;;;;;4.77;2.13;;;18.90;99.90;;;;;;4988658;28;20266;-63
2021/06/21 04:52:49;;;;;;;7.28;2.80;;;18.70;99.90;;;;;;4990474;28;20291;-62
2021/06/21 04:55:17;;;;;;;6.10;2.38;;;18.70;99.90;;;;;;5000422;28;20656;-63
2021/06/21 04:57:43;;;;;;;5.10;1.90;;;18.70;99.90;;;;;;4990617;28;20222;-62
2021/06/21 05:00:12;;;;;;;9.48;2.65;;;18.70;99.90;;;;;;4987382;28;20700;-62
2021/06/21 05:06:00;;;;;;;4.25;2.55;;;18.70;99.90;;;;;;4990660;28;20241;-63
2021/06/21 05:08:27;;;;;;;4.50;2.37;;;18.80;99.90;;;;;;4983928;28;20222;-64
2021/06/21 05:10:52;;;;;;;5.28;2.35;;;18.80;99.90;;;;;;4982889;28;20644;-63
2021/06/21 05:13:18;;;;;;;3.93;2.03;;;18.80;99.90;;;;;;4985426;28;20185;-63
2021/06/21 05:15:44;;;;;;;6.03;3.23;;;18.90;99.90;;;;;;4985969;28;20278;-62
2021/06/21 05:18:09;;;;;;;6.60;3.00;;;19.00;99.90;;;;;;4985984;28;20203;-66
2021/06/21 05:20:35;;;;;;;5.00;2.07;;;19.10;99.90;;;;;;4984162;28;20183;-59
2021/06/21 05:23:00;;;;;;;5.03;2.50;;;19.20;99.90;;;;;;4984952;28;20672;-59
2021/06/21 05:25:26;;;;;;;4.00;2.57;;;19.30;99.90;;;;;;4983080;28;20594;-59
2021/06/21 05:27:52;;;;;;;6.10;2.00;;;19.40;99.90;;;;;;4983713;28;20293;-59
2021/06/21 05:30:18;;;;;;;5.57;2.13;;;19.50;99.90;;;;;;4982468;28;20649;-59
2021/06/21 05:32:44;;;;;;;3.03;1.60;;;19.60;99.90;;;;;;4983555;28;20227;-59
2021/06/21 05:35:11;;;;;;;6.57;2.27;;;19.80;99.90;;;;;;4989554;28;20459;-59
2021/06/21 05:37:37;;;;;;;6.43;1.77;;;19.90;99.90;;;;;;4998539;28;20261;-59
2021/06/21 05:40:05;;;;;;;3.45;1.73;;;20.00;99.90;;;;;;4984842;28;20191;-61
2021/06/21 05:42:30;;;;;;;5.82;1.80;;;20.10;99.90;;;;;;4986799;28;20594;-60
2021/06/21 05:44:56;;;;;;;4.67;1.70;;;20.10;99.90;;;;;;4984579;28;20274;-60
2021/06/21 05:47:22;;;;;;;5.73;2.67;;;20.20;99.90;;;;;;4984626;28;20215;-61
2021/06/21 05:49:47;;;;;;;7.60;1.73;;;20.30;99.90;;;;;;4985449;28;20227;-60
2021/06/21 05:52:13;;;;;;;3.90;1.70;;;20.30;99.90;;;;;;4984727;28;20443;-60
2021/06/21 05:54:39;;;;;;;5.13;1.70;;;20.40;99.90;;;;;;4985428;28;20949;-60
2021/06/21 05:57:05;;;;;;;4.10;1.60;;;20.60;99.90;;;;;;4984200;28;20207;-60
2021/06/21 05:59:31;;;;;;;4.93;2.03;;;20.80;99.90;;;;;;4984276;28;20206;-60
2021/06/21 06:01:56;;;;;;;5.47;1.73;;;20.90;99.90;;;;;;4981395;28;20179;-61
2021/06/21 06:04:22;;;;;;;5.10;1.90;;;21.00;99.90;;;;;;4986859;28;20183;-59
2021/06/21 06:06:47;;;;;;;9.20;3.23;;;21.00;99.90;;;;;;4986472;28;20214;-60
2021/06/21 06:09:13;;;;;;;7.40;2.00;;;20.90;99.90;;;;;;4985962;28;20221;-59
2021/06/21 06:11:42;;;;;;;4.47;2.00;;;21.00;99.90;;;;;;4992646;28;20180;-59
2021/06/21 06:14:08;;;;;;;4.10;2.15;;;20.90;99.90;;;;;;4992172;28;20187;-57
2021/06/21 06:16:34;;;;;;;3.43;1.83;;;21.00;99.90;;;;;;4991965;28;20203;-60
2021/06/21 06:18:59;;;;;;;4.07;1.83;;;21.00;99.90;;;;;;4984018;28;20238;-61
2021/06/21 06:21:29;;;;;;;5.70;1.80;;;21.10;99.90;;;;;;4989610;28;20274;-61
2021/06/21 06:23:56;;;;;;;4.32;1.67;;;21.20;99.90;;;;;;5003448;28;20589;-60
2021/06/21 06:26:21;;;;;;;3.40;2.17;;;21.20;99.90;;;;;;5000456;28;20659;-58
2021/06/21 06:28:47;;;;;;;3.90;2.60;;;21.20;99.90;;;;;;4988436;28;20218;-58
2021/06/21 06:31:13;;;;;;;7.23;3.03;;;21.30;99.90;;;;;;4984968;28;20184;-59
2021/06/21 06:33:38;;;;;;;4.73;2.10;;;21.50;99.90;;;;;;4988321;28;20226;-60
2021/06/21 06:36:04;;;;;;;3.83;2.13;;;21.60;99.90;;;;;;4992374;28;20709;-59
2021/06/21 06:38:31;;;;;;;4.88;2.28;;;21.70;99.90;;;;;;4996296;28;20204;-61
2021/06/21 06:40:57;;;;;;;4.05;2.05;;;21.70;99.90;;;;;;4988266;28;20246;-60
2021/06/21 06:43:23;;;;;;;3.63;2.33;;;21.80;99.90;;;;;;4991021;28;20195;-60
2021/06/21 06:45:48;;;;;;;7.27;2.00;;;21.90;99.90;;;;;;4996786;28;20549;-60
2021/06/21 06:48:14;;;;;;;3.83;1.73;;;22.00;99.90;;;;;;4992930;28;20516;-59
2021/06/21 06:50:40;;;;;;;3.67;1.47;;;22.10;99.90;;;;;;4983903;28;20190;-58
2021/06/21 06:53:06;;;;;;;3.20;2.13;;;22.20;99.90;;;;;;4979179;28;20193;-59
2021/06/21 06:58:18;;;;;;;4.65;2.35;;;22.60;99.90;;;;;;4990024;28;20206;-58
2021/06/21 07:00:44;;;;;;;6.30;1.77;;;22.80;99.90;;;;;;4989765;28;20199;-60
2021/06/21 07:03:10;;;;;;;7.00;2.30;;;23.10;99.90;;;;;;4993775;28;20211;-60
2021/06/21 07:05:36;;;;;;;3.40;1.43;;;23.70;99.90;;;;;;4986554;28;20255;-60
2021/06/21 07:08:02;;;;;;;4.67;1.60;;;24.80;98.60;;;;;;4989399;28;21002;-57
2021/06/21 07:10:28;;;;;;;4.03;1.73;;;26.30;94.70;;;;;;4989145;28;20481;-57
2021/06/21 07:12:54;;;;;;;7.83;2.00;;;27.70;91.30;;;;;;4988668;28;20465;-59
2021/06/21 07:15:19;;;;;;;4.50;2.10;;;28.90;87.90;;;;;;4993100;28;20191;-59
2021/06/21 07:17:45;;;;;;;4.47;1.60;;;30.60;81.20;;;;;;4990283;28;20213;-58
2021/06/21 07:20:12;;;;;;;4.40;1.43;;;31.50;74.80;;;;;;4992128;28;20187;-56
2021/06/21 07:22:38;;;;;;;5.00;1.73;;;32.00;70.90;;;;;;4996313;28;20197;-58
2021/06/21 07:25:08;;;;;;;5.73;1.90;;;33.10;66.80;;;;;;4994461;28;20445;-58
2021/06/21 07:27:34;;;;;;;4.20;1.80;;;33.80;62.00;;;;;;5003458;28;20519;-58
2021/06/21 07:30:00;;;;;;;3.17;1.70;;;33.60;61.70;;;;;;4996547;28;20443;-60
2021/06/21 07:32:26;;;;;;;4.63;1.90;;;34.10;59.70;;;;;;4982765;28;20681;-60
2021/06/21 07:34:51;;;;;;;2.17;1.23;;;34.40;57.80;;;;;;4991409;28;20443;-57
2021/06/21 07:37:17;;;;;;;3.07;1.47;;;35.20;56.20;;;;;;4991046;28;20199;-57
2021/06/21 07:39:43;;;;;;;3.40;1.40;;;34.50;56.00;;;;;;4991104;28;20715;-60
2021/06/21 07:42:09;;;;;;;4.93;1.57;;;34.10;57.30;;;;;;4996871;28;20202;-59
2021/06/21 07:44:35;;;;;;;2.23;1.40;;;34.80;54.80;;;;;;4992792;28;20806;-59
2021/06/21 07:47:01;;;;;;;3.67;1.60;;;35.40;53.40;;;;;;4991003;28;20596;-59
2021/06/21 07:49:28;;;;;;;2.70;1.50;;;35.60;52.90;;;;;;4999431;28;20530;-59
2021/06/21 07:51:53;;;;;;;2.83;1.63;;;36.10;51.30;;;;;;4991803;28;20443;-59
2021/06/21 07:54:20;;;;;;;2.80;1.57;;;34.90;52.60;;;;;;4993471;28;20453;-59
2021/06/21 07:56:46;;;;;;;4.70;1.70;;;34.40;53.70;;;;;;4993851;28;20282;-59
2021/06/21 07:59:11;;;;;;;3.20;1.90;;;34.90;52.50;;;;;;4991787;28;20597;-57
2021/06/21 08:01:38;;;;;;;2.97;1.43;;;35.00;53.10;;;;;;5012285;28;20203;-58
2021/06/21 08:04:03;;;;;;;4.83;2.00;;;34.70;53.50;;;;;;4993699;28;20190;-56
2021/06/21 08:06:29;;;;;;;3.30;2.00;;;34.90;53.50;;;;;;4995560;28;20814;-56
2021/06/21 08:08:55;;;;;;;2.50;1.43;;;34.00;54.30;;;;;;4992801;28;20579;-55
2021/06/21 08:11:21;;;;;;;2.80;1.47;;;35.10;52.80;;;;;;4998859;28;20182;-55
2021/06/21 08:13:46;;;;;;;6.67;1.70;;;36.00;51.10;;;;;;4992100;28;20278;-55
2021/06/21 08:16:12;;;;;;;2.50;1.63;;;35.10;52.50;;;;;;4989598;28;20569;-57
2021/06/21 08:18:38;;;;;;;3.60;1.40;;;35.00;51.20;;;;;;4996414;28;20239;-58
2021/06/21 08:21:04;;;;;;;3.30;1.53;;;35.10;51.00;;;;;;4999336;28;20630;-58
2021/06/21 08:23:31;;;;;;;3.43;1.27;;;36.30;50.40;;;;;;4992488;28;20728;-59
2021/06/21 08:25:57;;;;;;;4.90;2.10;;;37.10;48.00;;;;;;4998059;28;20488;-61
2021/06/21 08:28:23;;;;;;;4.10;1.83;;;35.80;48.20;;;;;;5000373;28;20517;-60
2021/06/21 08:30:49;;;;;;;4.73;1.60;;;35.20;50.20;;;;;;4989942;28;20604;-58
2021/06/21 08:33:15;;;;;;;3.00;1.57;;;33.80;53.30;;;;;;4995332;28;20567;-58
2021/06/21 08:35:41;;;;;;;4.03;1.97;;;34.20;52.50;;;;;;4989616;28;20537;-58
2021/06/21 08:38:07;;;;;;;2.77;1.57;;;34.60;52.00;;;;;;4989682;28;20474;-58
2021/06/21 08:40:35;;;;;;;4.13;1.63;;;35.10;51.70;;;;;;4981053;28;20474;-60
2021/06/21 08:43:03;;;;;;;5.63;1.67;;;36.70;49.10;;;;;;4989307;28;20227;-61
2021/06/21 08:45:31;;;;;;;2.90;1.50;;;38.00;46.70;;;;;;4989034;28;20454;-60
2021/06/21 08:47:57;;;;;;;4.57;1.87;;;37.40;45.70;;;;;;4999867;28;20486;-60
2021/06/21 08:50:24;;;;;;;3.00;1.50;;;35.70;48.10;;;;;;4988801;28;20867;-60
2021/06/21 08:52:51;;;;;;;5.30;1.80;;;35.10;49.60;;;;;;4992635;28;20438;-59
2021/06/21 08:55:16;;;;;;;1.80;1.17;;;34.80;48.90;;;;;;4995503;28;20529;-60
2021/06/21 08:57:47;;;;;;;1.50;1.23;;;34.80;49.20;;;;;;4991024;28;20471;-59
2021/06/21 09:00:15;;;;;;;1.90;1.43;;;36.00;48.20;;;;;;4994451;28;20195;-59
2021/06/21 09:02:40;;;;;;;3.40;3.10;;;35.80;47.30;;;;;;4989761;28;20438;-59
2021/06/21 09:05:10;;;;;;;3.20;1.37;;;35.40;48.10;;;;;;4996383;28;20521;-60
2021/06/21 09:07:36;;;;;;;4.77;4.37;;;35.40;48.80;;;;;;4991140;28;20222;-62
2021/06/21 09:10:08;;;;;;;3.37;1.50;;;35.60;49.10;;;;;;4995809;28;20442;-60
2021/06/21 09:12:35;;;;;;;2.37;1.60;;;35.80;47.30;;;;;;4996869;28;20478;-60
2021/06/21 09:15:08;;;;;;;3.10;1.40;;;37.10;47.20;;;;;;4993635;28;20438;-62
2021/06/21 09:17:37;;;;;;;3.00;1.80;;;36.20;47.80;;;;;;4987769;28;20496;-60
2021/06/21 09:20:06;;;;;;;3.53;1.60;;;37.10;45.80;;;;;;4988642;28;20810;-61
2021/06/21 09:22:42;;;;;;;2.17;1.43;;;37.80;43.60;;;;;;4990106;28;20442;-60
2021/06/21 09:25:20;;;;;;;3.20;1.30;;;37.80;43.30;;;;;;4988670;28;20457;-61
2021/06/21 09:28:04;;;;;;;11.43;2.83;;;39.00;42.00;;;;;;5010957;28;20648;-62
2021/06/21 09:30:32;;;;;;;5.13;1.77;;;39.50;40.60;;;;;;4989164;28;20467;-62
2021/06/21 09:33:02;;;;;;;3.67;1.57;;;38.60;41.00;;;;;;4988441;28;20462;-60
2021/06/21 09:35:28;;;;;;;2.97;1.43;;;37.60;42.00;;;;;;4998741;28;20469;-61
2021/06/21 09:37:54;;;;;;;2.30;1.50;;;38.60;41.50;;;;;;4997290;28;21078;-62
2021/06/21 09:40:37;;;;;;;4.33;1.53;;;39.30;39.80;;;;;;5000859;28;20540;-59
2021/06/21 09:43:23;;;;;;;2.30;2.00;;;40.10;39.70;;;;;;4991146;28;20446;-61
2021/06/21 09:46:04;;;;;;;3.50;1.93;;;40.40;37.70;;;;;;4992152;28;20464;-62
2021/06/21 09:48:40;;;;;;;2.00;1.53;;;40.60;38.60;;;;;;4979354;28;20489;-65
2021/06/21 09:51:30;;;;;;;4.00;1.77;;;39.10;38.20;;;;;;4992139;28;20449;-62
2021/06/21 09:54:08;;;;;;;2.77;2.30;;;38.40;40.20;;;;;;4986063;28;20478;-61
2021/06/21 09:56:46;;;;;;;2.27;1.60;;;39.10;40.10;;;;;;4992790;28;20434;-62
2021/06/21 09:59:27;;;;;;;2.93;1.90;;;39.40;39.10;;;;;;4995707;28;20953;-61
2021/06/21 10:02:05;;;;;;;5.90;1.90;;;38.70;39.70;;;;;;4991865;28;20445;-61
2021/06/21 10:04:32;;;;;;;3.50;1.93;;;38.80;40.30;;;;;;4990305;28;20447;-62
2021/06/21 10:06:57;;;;;;;3.27;1.77;;;40.00;39.30;;;;;;4994291;28;20994;-61
2021/06/21 10:09:23;;;;;;;1.73;1.50;;;39.00;39.40;;;;;;4991270;28;20470;-61
2021/06/21 10:11:49;;;;;;;2.13;1.90;;;39.70;39.60;;;;;;4998385;28;20615;-62
2021/06/21 10:14:17;;;;;;;2.83;2.13;;;39.20;39.00;;;;;;4987151;28;20183;-62
2021/06/21 10:16:45;;;;;;;3.03;1.60;;;39.60;39.20;;;;;;4985053;28;20893;-60
2021/06/21 10:19:12;;;;;;;2.90;2.30;;;39.80;38.20;;;;;;4988019;28;20842;-60
2021/06/21 10:21:43;;;;;;;2.20;1.70;;;38.00;40.90;;;;;;4988574;28;20434;-62
2021/06/21 10:24:10;;;;;;;6.20;2.00;;;37.60;41.60;;;;;;4991721;28;20454;-61
2021/06/21 10:26:41;;;;;;;4.80;1.90;;;37.70;42.00;;;;;;4995807;28;20831;-61
2021/06/21 10:29:08;;;;;;;2.30;1.73;;;38.00;40.00;;;;;;4989298;28;21055;-62
2021/06/21 10:31:35;;;;;;;4.50;2.10;;;38.00;40.30;;;;;;4992756;28;20482;-60
2021/06/21 10:34:04;;;;;;;4.70;2.47;;;37.40;41.30;;;;;;4990662;28;20470;-61
2021/06/21 10:36:44;;;;;;;1.87;1.67;;;36.80;41.60;;;;;;4983153;28;20899;-61
2021/06/21 10:39:13;;;;;;;3.13;2.00;;;37.00;39.70;;;;;;4993256;28;20469;-59
2021/06/21 10:41:38;;;;;;;2.90;1.43;;;38.10;40.20;;;;;;4987205;28;20529;-60
2021/06/21 10:44:04;;;;;;;3.13;1.87;;;37.90;39.60;;;;;;4994420;28;20545;-59
2021/06/21 10:46:31;;;;;;;3.20;1.70;;;37.30;40.00;;;;;;4998131;28;20268;-60
2021/06/21 10:49:03;;;;;;;2.80;2.50;;;38.10;40.00;;;;;;4986346;28;20630;-59
2021/06/21 10:51:40;;;;;;;2.50;1.47;;;38.80;38.40;;;;;;4986805;28;20514;-59
2021/06/21 10:54:20;;;;;;;1.80;1.70;;;38.40;38.40;;;;;;4994923;28;20482;-60
2021/06/21 10:56:54;;;;;;;2.23;2.03;;;38.30;38.90;;;;;;5000238;28;20756;-59
2021/06/21 10:59:27;;;;;;;1.73;1.63;;;38.50;39.00;;;;;;4991911;28;21092;-59
2021/06/21 11:01:54;;;;;;;3.60;1.70;;;38.40;39.10;;;;;;4991117;28;20457;-59
2021/06/21 11:04:32;;;;;;;2.20;1.40;;;38.60;38.30;;;;;;4993330;28;20446;-60
2021/06/21 11:07:08;;;;;;;4.37;2.40;;;39.30;38.00;;;;;;5001255;28;20556;-60
2021/06/21 11:09:45;;;;;;;5.57;2.20;;;39.90;37.60;;;;;;4998589;28;20472;-60
2021/06/21 11:12:26;;;;;;;2.83;1.80;;;39.20;36.80;;;;;;4992023;28;20493;-58
2021/06/21 11:15:11;;;;;;;2.80;1.90;;;37.90;38.00;;;;;;4990813;28;20504;-57
2021/06/21 11:17:43;;;;;;;2.80;1.53;;;35.70;41.60;;;;;;4988362;28;20540;-57
2021/06/21 11:20:27;;;;;;;2.00;1.80;;;35.00;43.30;;;;;;4992249;28;20442;-59
2021/06/21 11:22:58;;;;;;;2.40;1.57;;;34.50;44.20;;;;;;5003030;28;20526;-59
2021/06/21 11:25:49;;;;;;;2.53;1.57;;;34.40;45.00;;;;;;4999114;28;20442;-57
2021/06/21 11:28:36;;;;;;;3.23;2.00;;;35.20;43.70;;;;;;4988989;28;20479;-60
2021/06/21 11:31:25;;;;;;;3.60;1.60;;;35.20;44.20;;;;;;4989633;28;20482;-59
2021/06/21 11:33:52;;;;;;;3.13;1.77;;;35.70;43.80;;;;;;4989214;28;20529;-59
2021/06/21 11:36:42;;;;;;;2.10;1.90;;;35.40;42.70;;;;;;4999080;28;20469;-57
2021/06/21 11:39:22;;;;;;;3.07;1.50;;;34.70;43.90;;;;;;4997224;28;20447;-58
2021/06/21 11:42:05;;;;;;;1.60;1.50;;;34.10;44.50;;;;;;4991637;28;20445;-55
2021/06/21 11:44:37;;;;;;;1.97;1.77;;;33.10;45.90;;;;;;5016161;28;20473;-57
2021/06/21 11:47:29;;;;;;;2.87;2.37;;;32.60;47.80;;;;;;4996643;28;20844;-58
2021/06/21 11:50:05;;;;;;;2.70;1.70;;;32.40;48.10;;;;;;4982016;28;20532;-58
2021/06/21 11:52:31;;;;;;;5.50;2.23;;;32.40;47.70;;;;;;4994360;28;20457;-57
2021/06/21 11:55:14;;;;;;;4.83;1.93;;;32.20;48.90;;;;;;5006265;28;20927;-58
2021/06/21 11:57:41;;;;;;;1.93;1.83;;;32.40;49.40;;;;;;5000220;28;20545;-58
2021/06/21 12:00:08;;;;;;;3.33;1.50;;;32.20;50.50;;;;;;4991497;28;20452;-56
2021/06/21 12:02:33;;;;;;;1.80;1.70;;;31.90;50.30;;;;;;4999565;28;20867;-56
2021/06/21 12:05:07;;;;;;;2.83;1.53;;;31.90;51.00;;;;;;4989357;28;20534;-56
2021/06/21 12:07:35;;;;;;;2.77;1.73;;;31.50;51.10;;;;;;5012392;28;20207;-57
2021/06/21 12:10:09;;;;;;;2.50;1.50;;;31.10;52.30;;;;;;4990180;28;20458;-57
2021/06/21 12:12:36;;;;;;;1.47;1.30;;;30.90;53.50;;;;;;4998370;28;21984;-56
2021/06/21 12:15:14;;;;;;;5.07;2.77;;;30.70;53.20;;;;;;4995582;28;20876;-58
2021/06/21 12:17:40;;;;;;;2.30;1.97;;;30.60;54.20;;;;;;4994769;28;20527;-57
2021/06/21 12:20:17;;;;;;;2.43;1.93;;;30.50;54.40;;;;;;4992852;28;20525;-56
2021/06/21 12:23:06;;;;;;;11.10;4.53;;;30.50;53.70;;;;;;4998899;28;20510;-56
2021/06/21 12:25:43;;;;;;;4.83;1.97;;;30.30;55.30;;;;;;5008286;28;20915;-55
2021/06/21 12:28:26;;;;;;;3.53;3.00;;;30.50;54.10;;;;;;4988005;28;20579;-56
2021/06/21 12:30:57;;;;;;;7.20;1.90;;;30.50;54.50;;;;;;5002649;28;20971;-58
2021/06/21 12:33:32;;;;;;;3.47;2.20;;;30.50;54.40;;;;;;4995200;28;20461;-57
2021/06/21 12:36:10;;;;;;;3.33;2.70;;;30.40;54.30;;;;;;4998355;28;20942;-57
2021/06/21 12:38:45;;;;;;;3.20;2.10;;;30.40;54.60;;;;;;4989368;28;20572;-57
2021/06/21 12:41:32;;;;;;;2.77;1.90;;;30.30;54.40;;;;;;4992706;28;20443;-56
2021/06/21 12:44:04;;;;;;;2.60;2.23;;;30.10;55.30;;;;;;4986798;28;20452;-56
2021/06/21 12:46:33;;;;;;;3.37;2.37;;;30.00;55.30;;;;;;4990106;28;20548;-56
2021/06/21 12:49:00;;;;;;;3.60;1.93;;;30.10;56.20;;;;;;4997234;28;20495;-56
2021/06/21 12:51:26;;;;;;;4.00;2.37;;;30.20;56.00;;;;;;4998526;28;20512;-55
2021/06/21 12:53:54;;;;;;;3.40;1.90;;;30.30;56.20;;;;;;4990235;28;20465;-55
2021/06/21 12:56:20;;;;;;;2.80;2.33;;;30.40;55.90;;;;;;4992941;28;20445;-54
2021/06/21 12:58:45;;;;;;;3.67;2.30;;;30.40;56.30;;;;;;4991551;28;20499;-56
2021/06/21 13:01:40;;;;;;;4.60;2.47;;;30.20;56.10;;;;;;4995681;28;20194;-55
2021/06/21 13:04:16;;;;;;;2.43;2.23;;;29.90;56.30;;;;;;4988059;28;20198;-57
2021/06/21 13:06:44;;;;;;;2.77;2.20;;;29.80;56.30;;;;;;4984679;28;20445;-57